EXS31PY LIPZ-EGCC
Flight info
| Callsign | EXS31PY |
|---|---|
| Flight time | N/A |
| Altitude | 36000 |
| Route | ROKIB DCT UNTAD DCT RESIA DCT ELMUR DCT RIPUS DCT DITON DCT HOC DCT LUL DCT RLP DCT ROTSI DCT KOTUN DCT AMAXA DCT VESAN DCT RATUK DCT SOVAT L613 SANDY UN57 WELIN T420 ELVOS |
| Aircraft | A321/M-SDE3FGHIRWY/LB1 |
Departure
| Time | 2026-05-07 18:08 |
|---|---|
| Airport | Venice Marco Polo Airport (LIPZ) |
Arrival
| Time | N/A |
|---|---|
| Airport | Manchester Airport (EGCC) |
| Time | Latitude | Longitude | Altitude | Speed | Heading |
|---|---|---|---|---|---|
| 2026-05-07 17:50 | 45.50287 | 12.34165 | 16 ft | 0 kts | 312° |
| 2026-05-07 18:01 | 45.50277 | 12.34180 | 16 ft | 3 kts | 312° |
| 2026-05-07 18:01 | 45.50263 | 12.34202 | 20 ft | 3 kts | 312° |
| 2026-05-07 18:02 | 45.50238 | 12.34242 | 17 ft | 3 kts | 297° |
| 2026-05-07 18:02 | 45.50234 | 12.34265 | 18 ft | 3 kts | 252° |
| 2026-05-07 18:02 | 45.50243 | 12.34288 | 18 ft | 3 kts | 222° |
| 2026-05-07 18:03 | 45.50239 | 12.34282 | 17 ft | 3 kts | 222° |
| 2026-05-07 18:03 | 45.50233 | 12.34274 | 16 ft | 0 kts | 222° |
| 2026-05-07 18:05 | 45.50202 | 12.34235 | 16 ft | 14 kts | 222° |
| 2026-05-07 18:05 | 45.50113 | 12.34119 | 16 ft | 18 kts | 221° |
| 2026-05-07 18:05 | 45.50022 | 12.34002 | 15 ft | 17 kts | 222° |
| 2026-05-07 18:06 | 45.49935 | 12.33892 | 16 ft | 16 kts | 220° |
| 2026-05-07 18:06 | 45.49853 | 12.33788 | 16 ft | 15 kts | 222° |
| 2026-05-07 18:06 | 45.49768 | 12.33679 | 16 ft | 20 kts | 219° |
| 2026-05-07 18:06 | 45.49633 | 12.33550 | 17 ft | 19 kts | 221° |
| 2026-05-07 18:07 | 45.49532 | 12.33566 | 17 ft | 16 kts | 133° |
| 2026-05-07 18:07 | 45.49454 | 12.33684 | 16 ft | 16 kts | 132° |
| 2026-05-07 18:07 | 45.49450 | 12.33819 | 16 ft | 15 kts | 43° |
| 2026-05-07 18:07 | 45.49532 | 12.33927 | 15 ft | 21 kts | 42° |
| 2026-05-07 18:08 | 45.49807 | 12.34283 | 13 ft | 88 kts | 42° |
| 2026-05-07 18:08 | 45.50395 | 12.35037 | 13 ft | 141 kts | 41° |
| 2026-05-07 18:08 | 45.51233 | 12.36118 | 104 ft | 173 kts | 44° |
| 2026-05-07 18:08 | 45.52111 | 12.37273 | 720 ft | 172 kts | 47° |
| 2026-05-07 18:09 | 45.53002 | 12.38441 | 1274 ft | 177 kts | 45° |
| 2026-05-07 18:09 | 45.53933 | 12.39625 | 1740 ft | 186 kts | 43° |
| 2026-05-07 18:09 | 45.54959 | 12.40908 | 1909 ft | 206 kts | 43° |
| 2026-05-07 18:09 | 45.56199 | 12.41970 | 2226 ft | 215 kts | 14° |
| 2026-05-07 18:10 | 45.57655 | 12.41624 | 2627 ft | 217 kts | 329° |
| 2026-05-07 18:10 | 45.58814 | 12.40276 | 3056 ft | 215 kts | 312° |
| 2026-05-07 18:10 | 45.59555 | 12.38469 | 3517 ft | 210 kts | 286° |
| 2026-05-07 18:10 | 45.59820 | 12.36384 | 3745 ft | 223 kts | 270° |
| 2026-05-07 18:11 | 45.59859 | 12.34035 | 3962 ft | 249 kts | 271° |
| 2026-05-07 18:11 | 45.59929 | 12.32373 | 4335 ft | 257 kts | 274° |
| 2026-05-07 18:11 | 45.60130 | 12.28934 | 5393 ft | 262 kts | 275° |
| 2026-05-07 18:11 | 45.60295 | 12.26342 | 6232 ft | 263 kts | 275° |
| 2026-05-07 18:12 | 45.60463 | 12.23720 | 6998 ft | 267 kts | 275° |
| 2026-05-07 18:12 | 45.60631 | 12.21066 | 7754 ft | 270 kts | 275° |
| 2026-05-07 18:12 | 45.60798 | 12.18376 | 8538 ft | 273 kts | 275° |
| 2026-05-07 18:12 | 45.60973 | 12.15650 | 9266 ft | 278 kts | 277° |
| 2026-05-07 18:13 | 45.61570 | 12.13032 | 9989 ft | 281 kts | 300° |
| 2026-05-07 18:13 | 45.62846 | 12.10858 | 10458 ft | 295 kts | 314° |
| 2026-05-07 18:13 | 45.64381 | 12.08737 | 10611 ft | 318 kts | 315° |
| 2026-05-07 18:13 | 45.66052 | 12.06494 | 10720 ft | 341 kts | 316° |
| 2026-05-07 18:14 | 45.67847 | 12.04106 | 10862 ft | 362 kts | 316° |
| 2026-05-07 18:14 | 45.69740 | 12.01592 | 11086 ft | 377 kts | 316° |
| 2026-05-07 18:14 | 45.71653 | 11.99037 | 11602 ft | 383 kts | 315° |
| 2026-05-07 18:14 | 45.73608 | 11.96411 | 12202 ft | 386 kts | 315° |
| 2026-05-07 18:15 | 45.75568 | 11.93761 | 12802 ft | 389 kts | 315° |
| 2026-05-07 18:15 | 45.77544 | 11.91083 | 13393 ft | 392 kts | 315° |
| 2026-05-07 18:15 | 45.79532 | 11.88381 | 13951 ft | 395 kts | 315° |
| 2026-05-07 18:15 | 45.81532 | 11.85658 | 14471 ft | 398 kts | 315° |
| 2026-05-07 18:16 | 45.83548 | 11.82912 | 14967 ft | 401 kts | 315° |
| 2026-05-07 18:16 | 45.85575 | 11.80148 | 15477 ft | 404 kts | 315° |
| 2026-05-07 18:16 | 45.87619 | 11.77353 | 15997 ft | 407 kts | 315° |
| 2026-05-07 18:16 | 45.89670 | 11.74544 | 16525 ft | 409 kts | 315° |
| 2026-05-07 18:17 | 45.91038 | 11.72671 | 16852 ft | 411 kts | 315° |
| 2026-05-07 18:17 | 45.92978 | 11.69642 | 17341 ft | 412 kts | 307° |
| 2026-05-07 18:17 | 45.94561 | 11.66202 | 17826 ft | 414 kts | 298° |
| 2026-05-07 18:17 | 45.96249 | 11.61269 | 18484 ft | 417 kts | 295° |
| 2026-05-07 18:18 | 45.97522 | 11.57505 | 18908 ft | 420 kts | 295° |
| 2026-05-07 18:18 | 45.98389 | 11.54955 | 19220 ft | 421 kts | 295° |
| 2026-05-07 18:18 | 45.99680 | 11.51160 | 19657 ft | 423 kts | 295° |
| 2026-05-07 18:18 | 46.00976 | 11.47343 | 20086 ft | 426 kts | 295° |
| 2026-05-07 18:19 | 46.02276 | 11.43505 | 20524 ft | 428 kts | 295° |
| 2026-05-07 18:19 | 46.03583 | 11.39628 | 20937 ft | 430 kts | 295° |
| 2026-05-07 18:19 | 46.04884 | 11.35742 | 21344 ft | 433 kts | 295° |
| 2026-05-07 18:19 | 46.06195 | 11.31825 | 21758 ft | 435 kts | 295° |
| 2026-05-07 18:20 | 46.07516 | 11.27891 | 22175 ft | 438 kts | 295° |
| 2026-05-07 18:20 | 46.08845 | 11.23928 | 22591 ft | 440 kts | 295° |
| 2026-05-07 18:20 | 46.10178 | 11.19945 | 22992 ft | 443 kts | 295° |
| 2026-05-07 18:20 | 46.11517 | 11.15934 | 23385 ft | 445 kts | 295° |
| 2026-05-07 18:21 | 46.12861 | 11.11896 | 23754 ft | 448 kts | 295° |
| 2026-05-07 18:21 | 46.14191 | 11.07897 | 24112 ft | 449 kts | 294° |
| 2026-05-07 18:21 | 46.15545 | 11.03828 | 24476 ft | 450 kts | 294° |
| 2026-05-07 18:21 | 46.16898 | 10.99749 | 24862 ft | 451 kts | 294° |
| 2026-05-07 18:22 | 46.18249 | 10.95664 | 25182 ft | 451 kts | 294° |
| 2026-05-07 18:22 | 46.19156 | 10.92914 | 25477 ft | 449 kts | 294° |
| 2026-05-07 18:22 | 46.20929 | 10.87542 | 26136 ft | 445 kts | 294° |
| 2026-05-07 18:22 | 46.22253 | 10.83521 | 26655 ft | 441 kts | 294° |
| 2026-05-07 18:23 | 46.23563 | 10.79538 | 27138 ft | 437 kts | 293° |
| 2026-05-07 18:23 | 46.24858 | 10.75586 | 27558 ft | 435 kts | 293° |
| 2026-05-07 18:23 | 46.26145 | 10.71650 | 28023 ft | 432 kts | 293° |
| 2026-05-07 18:23 | 46.27425 | 10.67722 | 28487 ft | 429 kts | 293° |
| 2026-05-07 18:24 | 46.28691 | 10.63833 | 28964 ft | 426 kts | 292° |
| 2026-05-07 18:24 | 46.29949 | 10.59965 | 29438 ft | 423 kts | 292° |
| 2026-05-07 18:24 | 46.31195 | 10.56123 | 29901 ft | 421 kts | 292° |
| 2026-05-07 18:24 | 46.32432 | 10.52303 | 30337 ft | 418 kts | 292° |
| 2026-05-07 18:25 | 46.33667 | 10.48499 | 30711 ft | 416 kts | 292° |
| 2026-05-07 18:25 | 46.34891 | 10.44716 | 31039 ft | 416 kts | 292° |
| 2026-05-07 18:25 | 46.36114 | 10.40923 | 31362 ft | 415 kts | 292° |
| 2026-05-07 18:25 | 46.37334 | 10.37133 | 31702 ft | 415 kts | 292° |
| 2026-05-07 18:26 | 46.38552 | 10.33352 | 32100 ft | 414 kts | 292° |
| 2026-05-07 18:26 | 46.39769 | 10.29579 | 32476 ft | 412 kts | 292° |
| 2026-05-07 18:26 | 46.40976 | 10.25825 | 32850 ft | 411 kts | 292° |
| 2026-05-07 18:26 | 46.42167 | 10.22117 | 33192 ft | 409 kts | 291° |
| 2026-05-07 18:27 | 46.43362 | 10.18370 | 33554 ft | 409 kts | 291° |
| 2026-05-07 18:27 | 46.44553 | 10.14631 | 33931 ft | 408 kts | 291° |
| 2026-05-07 18:27 | 46.45744 | 10.10901 | 34266 ft | 407 kts | 291° |
| 2026-05-07 18:27 | 46.46941 | 10.07180 | 34505 ft | 409 kts | 294° |
| 2026-05-07 18:28 | 46.48408 | 10.03625 | 34676 ft | 415 kts | 302° |
| 2026-05-07 18:28 | 46.50256 | 10.00379 | 34864 ft | 419 kts | 307° |
| 2026-05-07 18:28 | 46.52203 | 9.97217 | 35062 ft | 420 kts | 307° |
| 2026-05-07 18:28 | 46.54138 | 9.94038 | 35288 ft | 420 kts | 307° |
| 2026-05-07 18:29 | 46.56068 | 9.90845 | 35480 ft | 422 kts | 307° |
| 2026-05-07 18:29 | 46.58008 | 9.87628 | 35700 ft | 422 kts | 307° |
| 2026-05-07 18:29 | 46.59943 | 9.84419 | 35895 ft | 423 kts | 307° |
| 2026-05-07 18:29 | 46.61889 | 9.81195 | 36028 ft | 424 kts | 307° |
| 2026-05-07 18:30 | 46.63839 | 9.77970 | 36059 ft | 425 kts | 307° |
| 2026-05-07 18:30 | 46.67741 | 9.71506 | 36055 ft | 425 kts | 307° |
| 2026-05-07 18:31 | 46.71647 | 9.65031 | 36046 ft | 425 kts | 307° |
| 2026-05-07 18:31 | 46.75541 | 9.58539 | 36054 ft | 425 kts | 307° |
| 2026-05-07 18:32 | 46.79397 | 9.52093 | 36048 ft | 424 kts | 307° |
| 2026-05-07 18:32 | 46.83294 | 9.45576 | 36028 ft | 427 kts | 307° |
| 2026-05-07 18:33 | 46.87203 | 9.39010 | 36027 ft | 429 kts | 307° |
| 2026-05-07 18:33 | 46.91127 | 9.32402 | 36022 ft | 431 kts | 307° |
| 2026-05-07 18:34 | 46.95074 | 9.25769 | 36026 ft | 433 kts | 307° |
| 2026-05-07 18:34 | 46.99024 | 9.19116 | 36033 ft | 433 kts | 307° |
| 2026-05-07 18:35 | 47.02968 | 9.12429 | 36049 ft | 433 kts | 307° |
| 2026-05-07 18:35 | 47.06909 | 9.05736 | 36051 ft | 434 kts | 307° |
| 2026-05-07 18:36 | 47.10849 | 8.99021 | 36052 ft | 434 kts | 307° |
| 2026-05-07 18:36 | 47.14712 | 8.92211 | 36045 ft | 432 kts | 301° |
| 2026-05-07 18:37 | 47.17321 | 8.84380 | 36038 ft | 426 kts | 288° |
| 2026-05-07 18:37 | 47.19381 | 8.76212 | 36035 ft | 426 kts | 288° |
| 2026-05-07 18:38 | 47.21450 | 8.68105 | 36038 ft | 427 kts | 288° |
| 2026-05-07 18:38 | 47.23533 | 8.59924 | 36031 ft | 427 kts | 288° |
| 2026-05-07 18:39 | 47.25616 | 8.51667 | 36025 ft | 428 kts | 288° |
| 2026-05-07 18:39 | 47.27665 | 8.43510 | 36040 ft | 428 kts | 288° |
| 2026-05-07 18:40 | 47.29740 | 8.35280 | 36043 ft | 428 kts | 288° |
| 2026-05-07 18:40 | 47.31804 | 8.27041 | 36035 ft | 429 kts | 288° |
| 2026-05-07 18:41 | 47.33856 | 8.18781 | 36032 ft | 429 kts | 288° |
| 2026-05-07 18:41 | 47.35902 | 8.10505 | 36031 ft | 430 kts | 288° |
| 2026-05-07 18:42 | 47.37948 | 8.02210 | 36035 ft | 430 kts | 288° |
| 2026-05-07 18:42 | 47.39993 | 7.93905 | 36038 ft | 431 kts | 288° |
| 2026-05-07 18:43 | 47.42031 | 7.85587 | 36035 ft | 431 kts | 288° |
| 2026-05-07 18:43 | 47.44063 | 7.77246 | 36035 ft | 432 kts | 288° |
| 2026-05-07 18:44 | 47.46102 | 7.68868 | 36037 ft | 434 kts | 288° |
| 2026-05-07 18:44 | 47.47715 | 7.60290 | 36035 ft | 434 kts | 282° |
| 2026-05-07 18:45 | 47.49149 | 7.51682 | 36052 ft | 435 kts | 282° |
| 2026-05-07 18:45 | 47.50600 | 7.42990 | 36038 ft | 436 kts | 282° |
| 2026-05-07 18:46 | 47.52050 | 7.34273 | 36034 ft | 436 kts | 282° |
| 2026-05-07 18:46 | 47.53489 | 7.25558 | 36039 ft | 436 kts | 282° |
| 2026-05-07 18:47 | 47.54923 | 7.16809 | 36046 ft | 437 kts | 282° |
| 2026-05-07 18:47 | 47.56348 | 7.08067 | 36050 ft | 437 kts | 282° |
| 2026-05-07 18:48 | 47.57766 | 6.99314 | 36045 ft | 437 kts | 282° |
| 2026-05-07 18:48 | 47.59184 | 6.90552 | 36044 ft | 438 kts | 282° |
| 2026-05-07 18:49 | 47.60588 | 6.81830 | 36049 ft | 438 kts | 282° |
| 2026-05-07 18:49 | 47.61991 | 6.73028 | 36048 ft | 438 kts | 282° |
| 2026-05-07 18:50 | 47.63392 | 6.64231 | 36053 ft | 439 kts | 281° |
| 2026-05-07 18:50 | 47.64790 | 6.55420 | 36049 ft | 439 kts | 281° |
| 2026-05-07 18:51 | 47.66178 | 6.46599 | 36053 ft | 439 kts | 281° |
| 2026-05-07 18:51 | 47.67556 | 6.37761 | 36044 ft | 439 kts | 281° |
| 2026-05-07 18:52 | 47.68921 | 6.28975 | 36051 ft | 440 kts | 282° |
| 2026-05-07 18:52 | 47.70627 | 6.20239 | 36046 ft | 441 kts | 286° |
| 2026-05-07 18:53 | 47.72586 | 6.11594 | 36059 ft | 442 kts | 287° |
| 2026-05-07 18:53 | 47.74512 | 6.02935 | 36059 ft | 441 kts | 285° |
| 2026-05-07 18:54 | 47.76353 | 5.94245 | 36057 ft | 441 kts | 285° |
| 2026-05-07 18:54 | 47.78163 | 5.85529 | 36071 ft | 441 kts | 285° |
| 2026-05-07 18:55 | 47.79970 | 5.76805 | 36069 ft | 441 kts | 285° |
| 2026-05-07 18:55 | 47.81778 | 5.68081 | 36076 ft | 441 kts | 285° |
| 2026-05-07 18:56 | 47.83590 | 5.59345 | 36073 ft | 442 kts | 285° |
| 2026-05-07 18:56 | 47.85395 | 5.50595 | 36073 ft | 442 kts | 285° |
| 2026-05-07 18:57 | 47.87178 | 5.41911 | 36077 ft | 441 kts | 285° |
| 2026-05-07 18:57 | 47.88962 | 5.33151 | 36085 ft | 441 kts | 285° |
| 2026-05-07 18:58 | 47.91260 | 5.24668 | 36073 ft | 446 kts | 299° |
| 2026-05-07 18:58 | 47.95182 | 5.17454 | 36071 ft | 450 kts | 309° |